Terminal Aerodrome Forecast
Issued by NWS Cleveland, OH

Home | Current Version | Previous Version | Graphics & Text | Print | Product List | Glossary On
Versions: 1 2 3 4 5 6 7 8 9 10 11 12 13 14 15 16 17 18 19 20 21 22 23
586
FTUS41 KCLE 122340
TAFYNG
TAF
KYNG 122340Z 1300/1324 25012KT 1 1/2SM -SHSN OVC025
      TEMPO 1300/1301 30018G38KT 1/4SM +SN BLSN OVC008
     FM130200 30015G25KT 3SM -SHSN BKN035
      TEMPO 1303/1307 1SM -SHSN BKN025
     FM130900 30012G22KT P6SM VCSH BKN025
     FM131400 30015G22KT 3SM -SHSN OVC025
     FM132100 30012KT P6SM BKN035=

USA.gov is the U.S. government's official web portal to all federal, state and local government web resources and services.